Time;durP1;ratioP1;P1;durP2;ratioP2;P2;SDS_P1;SDS_P2;PMS_P1;PMS_P2;Temp;Humidity;BMP_temperature;BMP_pressure;BME280_temperature;BME280_humidity;BME280_pressure;Samples;Min_cycle;Max_cycle;Signal;HPM_P1;HPM_P2
2022/12/05 00:01:33;;;;;;;31.40;19.10;;;;;;;;;;5079952;28;20196;-76
2022/12/05 00:04:00;;;;;;;29.48;17.98;;;;;;;;;;5081577;28;20519;-76
2022/12/05 00:06:27;;;;;;;26.55;17.40;;;;;;;;;;5087403;28;20144;-76
2022/12/05 00:08:53;;;;;;;32.28;19.30;;;;;;;;;;5064111;28;20040;-83
2022/12/05 00:11:20;;;;;;;27.23;18.98;;;;;;;;;;5084275;28;20446;-77
2022/12/05 00:13:47;;;;;;;29.38;18.20;;;;;;;;;;5088841;28;20058;-77
2022/12/05 00:16:15;;;;;;;30.67;18.95;;;;;;;;;;5084778;28;20040;-77
2022/12/05 00:18:41;;;;;;;27.20;18.35;;;;;;;;;;5093192;28;20122;-77
2022/12/05 00:21:11;;;;;;;29.17;18.33;;;;;;;;;;5101823;27;20515;-76
2022/12/05 00:23:37;;;;;;;27.00;17.85;;;;;;;;;;5082058;28;20134;-77
2022/12/05 00:26:04;;;;;;;30.35;18.70;;;;;;;;;;5108438;28;20546;-77
2022/12/05 00:28:31;;;;;;;28.08;17.98;;;;;;;;;;5077776;28;20047;-77
2022/12/05 00:30:57;;;;;;;31.05;19.48;;;;;;;;;;5106701;28;20444;-76
2022/12/05 00:33:23;;;;;;;26.58;18.02;;;;;;;;;;5100938;28;20550;-77
2022/12/05 00:35:49;;;;;;;26.92;18.00;;;;;;;;;;5104405;28;20036;-76
2022/12/05 00:38:15;;;;;;;28.23;17.77;;;;;;;;;;5101126;28;20364;-77
2022/12/05 00:40:41;;;;;;;29.35;18.92;;;;;;;;;;5083640;28;20047;-77
2022/12/05 00:43:07;;;;;;;28.83;18.70;;;;;;;;;;5078416;28;20043;-77
2022/12/05 00:45:33;;;;;;;26.60;18.13;;;;;;;;;;5080635;28;20051;-77
2022/12/05 00:47:59;;;;;;;27.50;18.08;;;;;;;;;;5083649;28;20103;-77
2022/12/05 00:50:25;;;;;;;27.40;18.17;;;;;;;;;;5085228;28;20502;-76
2022/12/05 00:52:51;;;;;;;27.05;16.85;;;;;;;;;;5080192;28;20048;-76
2022/12/05 00:55:20;;;;;;;23.58;16.50;;;;;;;;;;5100977;28;20035;-77
2022/12/05 00:57:46;;;;;;;29.33;18.15;;;;;;;;;;5081567;28;20471;-77
2022/12/05 01:00:12;;;;;;;25.77;17.33;;;;;;;;;;5100220;28;20597;-77
2022/12/05 01:02:38;;;;;;;25.55;17.67;;;;;;;;;;5097889;28;20081;-77
2022/12/05 01:05:04;;;;;;;23.67;16.42;;;;;;;;;;5081604;28;20129;-76
2022/12/05 01:07:30;;;;;;;24.00;16.30;;;;;;;;;;5103442;28;20036;-76
2022/12/05 01:09:56;;;;;;;24.55;15.88;;;;;;;;;;5111189;28;20443;-77
2022/12/05 01:12:22;;;;;;;23.70;15.25;;;;;;;;;;5092771;28;20048;-77
2022/12/05 01:14:48;;;;;;;19.83;13.93;;;;;;;;;;5088932;28;20044;-77
2022/12/05 01:17:14;;;;;;;23.17;14.80;;;;;;;;;;5093177;28;20055;-77
2022/12/05 01:19:40;;;;;;;23.10;15.05;;;;;;;;;;5090045;28;20047;-77
2022/12/05 01:22:06;;;;;;;24.02;15.70;;;;;;;;;;5097385;28;20396;-77
2022/12/05 01:24:32;;;;;;;22.45;15.70;;;;;;;;;;5080674;28;20067;-77
2022/12/05 01:26:58;;;;;;;22.13;15.35;;;;;;;;;;5081971;28;20103;-77
2022/12/05 01:29:25;;;;;;;23.52;16.63;;;;;;;;;;5097913;28;20431;-77
2022/12/05 01:31:51;;;;;;;23.77;16.63;;;;;;;;;;5098929;28;20362;-77
2022/12/05 01:34:18;;;;;;;23.17;16.73;;;;;;;;;;5099695;28;20055;-77
2022/12/05 01:36:44;;;;;;;26.13;16.83;;;;;;;;;;5081642;28;20487;-76
2022/12/05 01:39:11;;;;;;;26.17;18.23;;;;;;;;;;5082300;28;20060;-77
2022/12/05 01:41:39;;;;;;;26.17;17.38;;;;;;;;;;5094385;28;20043;-76
2022/12/05 01:44:28;;;;;;;26.15;17.13;;;;;;;;;;5090648;28;20047;-76
2022/12/05 01:46:55;;;;;;;24.25;16.65;;;;;;;;;;5050213;28;20051;-77
2022/12/05 01:49:23;;;;;;;23.27;16.95;;;;;;;;;;5102023;28;21908;-77
2022/12/05 01:51:52;;;;;;;26.23;17.05;;;;;;;;;;5112446;28;20095;-76
2022/12/05 01:54:19;;;;;;;24.77;16.80;;;;;;;;;;5109642;28;20044;-76
2022/12/05 01:56:54;;;;;;;24.42;17.65;;;;;;;;;;5110055;28;20039;-76
2022/12/05 01:59:21;;;;;;;26.08;17.30;;;;;;;;;;5083504;28;20063;-77
2022/12/05 02:01:47;;;;;;;25.95;18.10;;;;;;;;;;5088140;28;20316;-77
2022/12/05 02:04:14;;;;;;;25.85;17.92;;;;;;;;;;5102987;28;20039;-76
2022/12/05 02:06:40;;;;;;;28.33;17.10;;;;;;;;;;5105452;28;20436;-76
2022/12/05 02:09:06;;;;;;;26.67;17.95;;;;;;;;;;5088559;28;20505;-76
2022/12/05 02:11:33;;;;;;;25.50;17.67;;;;;;;;;;5101508;28;20036;-76
2022/12/05 02:14:02;;;;;;;26.65;17.60;;;;;;;;;;5086201;28;20652;-76
2022/12/05 02:16:47;;;;;;;28.80;17.20;;;;;;;;;;5083145;28;20043;-76
2022/12/05 02:19:16;;;;;;;29.98;17.67;;;;;;;;;;5080485;28;20044;-76
2022/12/05 02:21:42;;;;;;;23.52;16.38;;;;;;;;;;5105270;27;20579;-77
2022/12/05 02:24:27;;;;;;;28.90;16.88;;;;;;;;;;5116545;27;20138;-77
2022/12/05 02:27:01;;;;;;;26.30;16.45;;;;;;;;;;5109312;28;20044;-76
2022/12/05 02:29:42;;;;;;;25.95;15.95;;;;;;;;;;5085439;28;20039;-77
2022/12/05 02:32:23;;;;;;;25.70;16.48;;;;;;;;;;5100940;28;20050;-76
2022/12/05 02:35:02;;;;;;;26.23;16.30;;;;;;;;;;5082326;28;20067;-76
2022/12/05 02:37:32;;;;;;;22.23;14.85;;;;;;;;;;5104046;28;20032;-77
2022/12/05 02:39:58;;;;;;;23.58;16.00;;;;;;;;;;5102672;28;20035;-76
2022/12/05 02:42:29;;;;;;;25.23;14.93;;;;;;;;;;5081826;28;20109;-76
2022/12/05 02:45:09;;;;;;;25.50;15.75;;;;;;;;;;5081963;28;20078;-76
2022/12/05 02:47:38;;;;;;;23.38;15.32;;;;;;;;;;5089098;28;20040;-77
2022/12/05 02:50:05;;;;;;;22.05;14.18;;;;;;;;;;5108242;28;20051;-76
2022/12/05 02:52:32;;;;;;;23.15;13.95;;;;;;;;;;5109256;28;20028;-76
2022/12/05 02:54:59;;;;;;;19.13;12.70;;;;;;;;;;5089525;28;20039;-75
2022/12/05 02:57:25;;;;;;;21.60;13.88;;;;;;;;;;5086820;28;20040;-76
2022/12/05 02:59:51;;;;;;;22.50;14.25;;;;;;;;;;5088719;28;20047;-76
2022/12/05 03:02:25;;;;;;;18.95;11.68;;;;;;;;;;5089962;28;20035;-76
2022/12/05 03:04:51;;;;;;;;;;;;;;;;;;5104082;28;20059;-76
2022/12/05 03:07:19;;;;;;;22.23;12.10;;;;;;;;;;5092669;28;19924;-76
2022/12/05 03:09:47;;;;;;;22.08;12.52;;;;;;;;;;5082261;28;20039;-76
2022/12/05 03:12:16;;;;;;;18.60;10.80;;;;;;;;;;5082225;28;20086;-76
2022/12/05 03:14:44;;;;;;;20.30;11.25;;;;;;;;;;5089572;28;20047;-76
2022/12/05 03:17:15;;;;;;;17.67;11.10;;;;;;;;;;5102712;28;20036;-76
2022/12/05 03:19:47;;;;;;;19.50;10.35;;;;;;;;;;5102851;28;20040;-76
2022/12/05 03:22:18;;;;;;;15.88;9.63;;;;;;;;;;5091342;28;20050;-76
2022/12/05 03:24:44;;;;;;;17.48;10.57;;;;;;;;;;5102777;28;20074;-76
2022/12/05 03:27:22;;;;;;;15.73;10.75;;;;;;;;;;5088862;28;20091;-76
2022/12/05 03:29:52;;;;;;;20.05;10.70;;;;;;;;;;5087076;28;20128;-76
2022/12/05 03:32:17;;;;;;;15.80;10.82;;;;;;;;;;5086850;28;20050;-76
2022/12/05 03:34:56;;;;;;;14.60;10.00;;;;;;;;;;5108820;28;20048;-76
2022/12/05 03:37:39;;;;;;;17.40;10.48;;;;;;;;;;5091091;28;20068;-76
2022/12/05 03:40:13;;;;;;;15.82;9.98;;;;;;;;;;5099018;28;20061;-76
2022/12/05 03:42:42;;;;;;;18.15;10.10;;;;;;;;;;5100074;28;20085;-76
2022/12/05 03:45:11;;;;;;;15.77;9.60;;;;;;;;;;5086736;28;20035;-76
2022/12/05 03:47:37;;;;;;;19.23;9.38;;;;;;;;;;5100166;28;20443;-76
2022/12/05 03:50:05;;;;;;;15.00;9.65;;;;;;;;;;5088814;28;20075;-76
2022/12/05 03:52:38;;;;;;;15.32;9.00;;;;;;;;;;5104686;28;20055;-76
2022/12/05 03:55:07;;;;;;;16.98;9.60;;;;;;;;;;5107629;28;20118;-76
2022/12/05 03:57:33;;;;;;;14.05;8.55;;;;;;;;;;5085765;28;20138;-76
2022/12/05 03:59:59;;;;;;;15.50;9.68;;;;;;;;;;5081513;28;20467;-76
2022/12/05 04:02:41;;;;;;;14.45;9.07;;;;;;;;;;5089961;28;20108;-76
2022/12/05 04:05:11;;;;;;;14.38;8.75;;;;;;;;;;5085717;28;20053;-76
2022/12/05 04:07:38;;;;;;;16.58;9.50;;;;;;;;;;5087711;28;20117;-76
2022/12/05 04:10:11;;;;;;;16.88;8.88;;;;;;;;;;5088699;28;20138;-76
2022/12/05 04:12:39;;;;;;;15.70;7.82;;;;;;;;;;5087235;28;20445;-76
2022/12/05 04:15:10;;;;;;;17.08;9.07;;;;;;;;;;5107251;28;20047;-76
2022/12/05 04:17:48;;;;;;;20.02;8.80;;;;;;;;;;5077298;28;20043;-76
2022/12/05 04:23:03;;;;;;;14.45;8.50;;;;;;;;;;5104140;28;20495;-76
2022/12/05 04:25:35;;;;;;;14.88;8.65;;;;;;;;;;5082504;28;20054;-76
2022/12/05 04:28:04;;;;;;;13.95;8.15;;;;;;;;;;5082351;28;20040;-75
2022/12/05 04:30:42;;;;;;;13.68;8.30;;;;;;;;;;5093909;28;20057;-76
2022/12/05 04:33:11;;;;;;;12.50;8.35;;;;;;;;;;5110216;27;20188;-76
2022/12/05 04:35:46;;;;;;;15.82;8.48;;;;;;;;;;5081388;28;20416;-76
2022/12/05 04:38:19;;;;;;;13.32;8.23;;;;;;;;;;5099297;28;20161;-76
2022/12/05 04:40:53;;;;;;;11.82;8.07;;;;;;;;;;5110039;28;20096;-76
2022/12/05 04:43:20;;;;;;;11.32;7.95;;;;;;;;;;5089598;28;20054;-76
2022/12/05 04:45:46;;;;;;;14.45;8.13;;;;;;;;;;5108128;28;20043;-76
2022/12/05 04:48:14;;;;;;;14.43;8.52;;;;;;;;;;5101956;28;20500;-76
2022/12/05 04:50:41;;;;;;;15.18;8.15;;;;;;;;;;5105916;28;20043;-76
2022/12/05 04:53:09;;;;;;;14.05;8.60;;;;;;;;;;5097020;28;20127;-76
2022/12/05 04:55:36;;;;;;;12.85;8.23;;;;;;;;;;5104176;28;20474;-76
2022/12/05 04:58:09;;;;;;;16.58;9.27;;;;;;;;;;5110383;28;20047;-76
2022/12/05 05:00:40;;;;;;;13.73;8.88;;;;;;;;;;5096815;28;20122;-76
2022/12/05 05:03:09;;;;;;;14.15;8.95;;;;;;;;;;5108520;28;20054;-76
2022/12/05 05:05:37;;;;;;;15.00;9.63;;;;;;;;;;5108973;28;20479;-76
2022/12/05 05:08:03;;;;;;;12.85;7.82;;;;;;;;;;5101455;28;20043;-76
2022/12/05 05:10:35;;;;;;;11.45;8.27;;;;;;;;;;5093848;28;20170;-76
2022/12/05 05:13:01;;;;;;;15.93;9.40;;;;;;;;;;5089531;28;20523;-76
2022/12/05 05:15:27;;;;;;;15.55;9.52;;;;;;;;;;5088453;28;20062;-76
2022/12/05 05:17:53;;;;;;;16.60;9.55;;;;;;;;;;5097922;28;20114;-76
2022/12/05 05:20:28;;;;;;;16.23;9.38;;;;;;;;;;5096050;28;20060;-76
2022/12/05 05:22:55;;;;;;;18.10;9.45;;;;;;;;;;5089076;28;20066;-76
2022/12/05 05:25:22;;;;;;;15.98;9.40;;;;;;;;;;5094799;28;20469;-76
2022/12/05 05:27:52;;;;;;;17.13;9.73;;;;;;;;;;5100532;28;20097;-76
2022/12/05 05:30:19;;;;;;;17.83;9.98;;;;;;;;;;5094501;28;20043;-76
2022/12/05 05:32:45;;;;;;;15.18;9.60;;;;;;;;;;5103244;28;20051;-76
2022/12/05 05:35:12;;;;;;;15.40;9.85;;;;;;;;;;5097648;28;20090;-76
2022/12/05 05:37:38;;;;;;;13.88;9.15;;;;;;;;;;5079812;28;20039;-76
2022/12/05 05:40:05;;;;;;;19.08;9.95;;;;;;;;;;5110816;28;20047;-76
2022/12/05 05:42:32;;;;;;;18.98;9.95;;;;;;;;;;5093912;28;20407;-76
2022/12/05 05:44:58;;;;;;;19.73;9.30;;;;;;;;;;5110706;28;20035;-76
2022/12/05 05:47:24;;;;;;;18.73;10.02;;;;;;;;;;5110905;28;20092;-76
2022/12/05 05:49:50;;;;;;;15.40;9.63;;;;;;;;;;5090632;28;20047;-76
2022/12/05 05:52:16;;;;;;;18.05;9.75;;;;;;;;;;5098190;28;20051;-76
2022/12/05 05:54:42;;;;;;;20.35;10.55;;;;;;;;;;5082714;28;20191;-76
2022/12/05 05:57:08;;;;;;;17.13;9.10;;;;;;;;;;5107521;28;20055;-75
2022/12/05 05:59:34;;;;;;;20.92;9.32;;;;;;;;;;5090968;28;20498;-76
2022/12/05 06:02:00;;;;;;;14.35;9.85;;;;;;;;;;5085366;28;20123;-76
2022/12/05 06:04:26;;;;;;;19.55;9.63;;;;;;;;;;5108559;28;20043;-76
2022/12/05 06:06:52;;;;;;;14.68;9.02;;;;;;;;;;5100820;28;20039;-76
2022/12/05 06:09:19;;;;;;;17.70;9.52;;;;;;;;;;5100604;28;20114;-76
2022/12/05 06:11:45;;;;;;;20.00;10.23;;;;;;;;;;5093747;28;20075;-76
2022/12/05 06:14:11;;;;;;;18.95;9.60;;;;;;;;;;5093118;28;20086;-76
2022/12/05 06:16:37;;;;;;;15.55;9.00;;;;;;;;;;5093722;28;20035;-76
2022/12/05 06:19:03;;;;;;;17.55;10.20;;;;;;;;;;5105892;28;20043;-76
2022/12/05 06:21:29;;;;;;;15.45;9.85;;;;;;;;;;5078599;28;20477;-76
2022/12/05 06:23:55;;;;;;;17.80;9.43;;;;;;;;;;5078131;28;20059;-76
2022/12/05 06:26:22;;;;;;;22.60;9.75;;;;;;;;;;5109242;28;20035;-76
2022/12/05 06:28:48;;;;;;;17.50;8.90;;;;;;;;;;5085701;28;20388;-76
2022/12/05 06:31:16;;;;;;;17.90;9.05;;;;;;;;;;5090295;28;20043;-76
2022/12/05 06:33:42;;;;;;;16.60;8.93;;;;;;;;;;5087893;28;20140;-76
2022/12/05 06:36:09;;;;;;;21.85;9.85;;;;;;;;;;5090974;28;21587;-75
2022/12/05 06:38:35;;;;;;;15.93;9.23;;;;;;;;;;5082296;28;20048;-76
2022/12/05 06:41:04;;;;;;;14.05;8.98;;;;;;;;;;5083617;28;20040;-76
2022/12/05 06:43:30;;;;;;;15.93;9.63;;;;;;;;;;5108174;28;20056;-76
2022/12/05 06:45:56;;;;;;;15.85;9.05;;;;;;;;;;5090491;28;20046;-76
2022/12/05 06:48:22;;;;;;;18.70;9.00;;;;;;;;;;5091453;28;20446;-76
2022/12/05 06:50:49;;;;;;;17.17;9.15;;;;;;;;;;5094101;28;20246;-76
2022/12/05 06:53:15;;;;;;;14.98;8.73;;;;;;;;;;5105429;28;20044;-76
2022/12/05 06:55:41;;;;;;;17.08;9.98;;;;;;;;;;5086281;28;20372;-75
2022/12/05 06:58:07;;;;;;;16.80;9.45;;;;;;;;;;5106971;28;20089;-76
2022/12/05 07:03:18;;;;;;;15.80;7.93;;;;;;;;;;5087493;28;20535;-76
2022/12/05 07:05:44;;;;;;;25.63;9.70;;;;;;;;;;5090973;28;20247;-76
2022/12/05 07:08:10;;;;;;;26.75;9.57;;;;;;;;;;5103536;28;20079;-76
2022/12/05 07:10:36;;;;;;;21.77;9.85;;;;;;;;;;5084222;28;20193;-75
2022/12/05 07:13:02;;;;;;;15.60;8.00;;;;;;;;;;5102787;28;20040;-75
2022/12/05 07:15:28;;;;;;;18.83;8.30;;;;;;;;;;5082093;28;20054;-76
2022/12/05 07:17:54;;;;;;;14.82;8.18;;;;;;;;;;5105281;28;20035;-76
2022/12/05 07:20:20;;;;;;;14.65;8.02;;;;;;;;;;5103977;28;20395;-76
2022/12/05 07:22:46;;;;;;;13.80;7.43;;;;;;;;;;5088677;28;20050;-76
2022/12/05 07:25:15;;;;;;;15.00;7.85;;;;;;;;;;5078140;28;20044;-76
2022/12/05 07:27:41;;;;;;;17.65;8.18;;;;;;;;;;5086005;28;20047;-75
2022/12/05 07:30:08;;;;;;;15.77;8.30;;;;;;;;;;5100679;28;20437;-76
2022/12/05 07:32:34;;;;;;;15.68;8.50;;;;;;;;;;5108113;28;20413;-75
2022/12/05 07:35:00;;;;;;;15.48;8.20;;;;;;;;;;5076835;28;20055;-75
2022/12/05 07:37:26;;;;;;;12.75;8.10;;;;;;;;;;5089485;28;20050;-75
2022/12/05 07:39:52;;;;;;;11.93;7.00;;;;;;;;;;5108347;28;20039;-75
2022/12/05 07:42:18;;;;;;;13.48;7.63;;;;;;;;;;5087988;28;20514;-76
2022/12/05 07:44:44;;;;;;;17.23;8.27;;;;;;;;;;5110922;28;20035;-76
2022/12/05 07:47:10;;;;;;;14.02;7.55;;;;;;;;;;5096125;28;20047;-77
2022/12/05 07:49:36;;;;;;;14.82;8.27;;;;;;;;;;5102858;28;20192;-76
2022/12/05 07:52:03;;;;;;;18.30;8.02;;;;;;;;;;5099514;28;20055;-76
2022/12/05 07:54:29;;;;;;;14.75;7.80;;;;;;;;;;5082697;28;20055;-76
2022/12/05 07:56:54;;;;;;;14.98;9.65;;;;;;;;;;5099308;28;20081;-76
2022/12/05 07:59:21;;;;;;;14.52;7.43;;;;;;;;;;5084960;28;21812;-76
2022/12/05 08:01:47;;;;;;;16.35;7.47;;;;;;;;;;5083441;27;21066;-75
2022/12/05 08:04:13;;;;;;;13.38;7.70;;;;;;;;;;5107252;27;20073;-76
2022/12/05 08:06:38;;;;;;;14.63;7.72;;;;;;;;;;5086289;28;20051;-75
2022/12/05 08:09:05;;;;;;;17.10;7.32;;;;;;;;;;5084944;28;20433;-75
2022/12/05 08:11:34;;;;;;;16.55;7.95;;;;;;;;;;5103286;28;20028;-75
2022/12/05 08:14:01;;;;;;;11.30;7.05;;;;;;;;;;5074305;28;20499;-75
2022/12/05 08:16:28;;;;;;;13.00;7.10;;;;;;;;;;5096974;28;20035;-75
2022/12/05 08:18:58;;;;;;;15.60;7.68;;;;;;;;;;5085164;28;20075;-75
2022/12/05 08:21:24;;;;;;;20.73;8.00;;;;;;;;;;5100946;28;20900;-75
2022/12/05 08:23:51;;;;;;;15.55;7.47;;;;;;;;;;5089795;28;20040;-75
2022/12/05 08:26:23;;;;;;;15.73;7.50;;;;;;;;;;5079712;28;20040;-75
2022/12/05 08:28:56;;;;;;;19.42;7.80;;;;;;;;;;5104404;28;20428;-75
2022/12/05 08:31:23;;;;;;;13.20;6.90;;;;;;;;;;5083599;28;20047;-75
2022/12/05 08:33:50;;;;;;;18.60;7.40;;;;;;;;;;5086449;28;20067;-75
2022/12/05 08:36:16;;;;;;;17.95;7.90;;;;;;;;;;5088476;28;20051;-75
2022/12/05 08:38:42;;;;;;;15.82;7.68;;;;;;;;;;5087446;28;20079;-75
2022/12/05 08:41:13;;;;;;;14.10;7.10;;;;;;;;;;5086578;28;20078;-75
2022/12/05 08:43:39;;;;;;;16.48;7.85;;;;;;;;;;5088283;28;20130;-75
2022/12/05 08:46:05;;;;;;;16.88;7.13;;;;;;;;;;5085723;28;20036;-75
2022/12/05 08:48:32;;;;;;;16.65;7.93;;;;;;;;;;5086793;28;20047;-75
2022/12/05 08:50:58;;;;;;;13.90;7.35;;;;;;;;;;5093525;28;20039;-75
2022/12/05 08:53:25;;;;;;;12.82;6.85;;;;;;;;;;5088747;28;20089;-75
2022/12/05 08:55:51;;;;;;;13.45;7.63;;;;;;;;;;5110084;28;20547;-75
2022/12/05 08:58:17;;;;;;;13.00;7.22;;;;;;;;;;5106362;28;20111;-75
2022/12/05 09:00:43;;;;;;;15.73;7.50;;;;;;;;;;5086912;28;20054;-75
2022/12/05 09:03:10;;;;;;;15.02;7.28;;;;;;;;;;5091599;28;20774;-75
2022/12/05 09:05:36;;;;;;;11.27;7.40;;;;;;;;;;5092081;28;20050;-75
2022/12/05 09:08:03;;;;;;;10.80;6.50;;;;;;;;;;5083489;28;20134;-75
2022/12/05 09:10:29;;;;;;;12.30;6.90;;;;;;;;;;5106041;28;20047;-75
2022/12/05 09:12:55;;;;;;;14.75;7.25;;;;;;;;;;5083025;28;20459;-75
2022/12/05 09:15:21;;;;;;;13.00;6.43;;;;;;;;;;5087553;28;20084;-75
2022/12/05 09:17:47;;;;;;;11.65;7.25;;;;;;;;;;5083490;28;20043;-76
2022/12/05 09:20:13;;;;;;;12.38;7.10;;;;;;;;;;5089001;28;20138;-75
2022/12/05 09:22:40;;;;;;;12.05;8.30;;;;;;;;;;5078773;28;20519;-76
2022/12/05 09:25:06;;;;;;;12.00;6.60;;;;;;;;;;5109115;28;20043;-76
2022/12/05 09:27:32;;;;;;;10.10;6.35;;;;;;;;;;5093092;28;20051;-75
2022/12/05 09:29:58;;;;;;;16.02;6.65;;;;;;;;;;5088863;28;20060;-75
2022/12/05 09:32:24;;;;;;;12.73;7.00;;;;;;;;;;5092720;28;20074;-75
2022/12/05 09:34:50;;;;;;;10.02;6.78;;;;;;;;;;5108448;28;20043;-75
2022/12/05 09:37:17;;;;;;;15.73;7.45;;;;;;;;;;5088739;28;20044;-76
2022/12/05 09:39:46;;;;;;;15.82;6.70;;;;;;;;;;5109341;28;20047;-75
2022/12/05 09:42:20;;;;;;;11.55;6.47;;;;;;;;;;5086084;28;20054;-75
2022/12/05 09:44:49;;;;;;;16.23;7.07;;;;;;;;;;5086603;28;20051;-75
2022/12/05 09:47:28;;;;;;;12.90;7.32;;;;;;;;;;5092143;28;20040;-75
2022/12/05 09:50:01;;;;;;;13.05;7.15;;;;;;;;;;5085176;28;20134;-75
2022/12/05 09:52:28;;;;;;;17.52;8.20;;;;;;;;;;5107698;28;20227;-75
2022/12/05 09:54:54;;;;;;;17.35;7.90;;;;;;;;;;5091309;28;20039;-76
2022/12/05 09:57:27;;;;;;;17.98;7.80;;;;;;;;;;5110483;28;20043;-76
2022/12/05 09:59:53;;;;;;;19.20;8.43;;;;;;;;;;5087391;28;20068;-76
2022/12/05 10:02:34;;;;;;;17.83;8.13;;;;;;;;;;5104047;28;20522;-76
2022/12/05 10:05:07;;;;;;;15.88;7.07;;;;;;;;;;5089192;28;20421;-77
2022/12/05 10:07:36;;;;;;;12.15;7.90;;;;;;;;;;5085025;28;20044;-76
2022/12/05 10:10:14;;;;;;;11.50;7.47;;;;;;;;;;5109361;28;20135;-76
2022/12/05 10:12:49;;;;;;;14.05;7.40;;;;;;;;;;5111429;28;20043;-76
2022/12/05 10:15:18;;;;;;;13.80;7.28;;;;;;;;;;5107611;28;20039;-76
2022/12/05 10:17:50;;;;;;;16.70;7.95;;;;;;;;;;5082490;28;20047;-76
2022/12/05 10:20:24;;;;;;;15.90;7.93;;;;;;;;;;5084283;28;20048;-76
2022/12/05 10:22:54;;;;;;;15.82;8.38;;;;;;;;;;5104535;28;20058;-76
2022/12/05 10:25:21;;;;;;;14.48;7.45;;;;;;;;;;5102354;28;20079;-76
2022/12/05 10:27:52;;;;;;;13.52;6.78;;;;;;;;;;5086703;28;20047;-77
2022/12/05 10:30:22;;;;;;;11.52;8.20;;;;;;;;;;5083905;28;20105;-77
2022/12/05 10:32:51;;;;;;;14.98;8.05;;;;;;;;;;5092312;28;20048;-76
2022/12/05 10:35:31;;;;;;;16.05;7.95;;;;;;;;;;5084973;28;20121;-76
2022/12/05 10:37:59;;;;;;;15.18;8.40;;;;;;;;;;5087253;28;20039;-76
2022/12/05 10:40:45;;;;;;;16.65;8.15;;;;;;;;;;5108006;28;20051;-77
2022/12/05 10:43:13;;;;;;;16.70;8.52;;;;;;;;;;5090367;28;20075;-77
2022/12/05 10:45:42;;;;;;;14.02;7.93;;;;;;;;;;5089065;28;20075;-76
2022/12/05 10:48:10;;;;;;;14.55;8.13;;;;;;;;;;5110439;28;20051;-76
2022/12/05 10:50:38;;;;;;;14.95;7.93;;;;;;;;;;5107859;28;20399;-77
2022/12/05 10:53:05;;;;;;;19.48;8.25;;;;;;;;;;5102235;28;20135;-76
2022/12/05 10:55:36;;;;;;;14.32;7.97;;;;;;;;;;5106716;28;20043;-76
2022/12/05 10:58:24;;;;;;;17.98;8.55;;;;;;;;;;5091527;28;20040;-77
2022/12/05 11:00:51;;;;;;;12.45;7.72;;;;;;;;;;5101852;28;20039;-76
2022/12/05 11:03:22;;;;;;;15.82;7.93;;;;;;;;;;5105293;28;20036;-76
2022/12/05 11:05:52;;;;;;;14.38;7.68;;;;;;;;;;5103207;28;20046;-76
2022/12/05 11:08:25;;;;;;;14.48;7.18;;;;;;;;;;5107631;28;20047;-76
2022/12/05 11:11:08;;;;;;;12.38;7.43;;;;;;;;;;5109367;28;20084;-77
2022/12/05 11:13:34;;;;;;;15.35;7.80;;;;;;;;;;5102866;28;20442;-76
2022/12/05 11:16:01;;;;;;;13.10;8.13;;;;;;;;;;5089545;28;20048;-77
2022/12/05 11:18:29;;;;;;;17.05;8.20;;;;;;;;;;5091213;28;20470;-77
2022/12/05 11:20:56;;;;;;;16.20;7.53;;;;;;;;;;5104005;28;20505;-76
2022/12/05 11:23:30;;;;;;;13.88;7.55;;;;;;;;;;5088277;28;20055;-77
2022/12/05 11:25:57;;;;;;;16.33;7.28;;;;;;;;;;5106114;28;20475;-76
2022/12/05 11:28:28;;;;;;;13.00;7.93;;;;;;;;;;5082284;28;20406;-77
2022/12/05 11:31:00;;;;;;;17.27;8.63;;;;;;;;;;5080173;28;20097;-76
2022/12/05 11:33:27;;;;;;;15.93;8.20;;;;;;;;;;5089972;28;20105;-76
2022/12/05 11:35:58;;;;;;;14.40;8.00;;;;;;;;;;5086619;28;20052;-76
2022/12/05 11:38:27;;;;;;;17.50;8.10;;;;;;;;;;5087741;28;20074;-76
2022/12/05 11:40:55;;;;;;;18.25;8.00;;;;;;;;;;5108443;28;20096;-77
2022/12/05 11:43:40;;;;;;;11.98;7.97;;;;;;;;;;5075032;28;20047;-77
2022/12/05 11:46:14;;;;;;;12.02;7.38;;;;;;;;;;5094303;28;20075;-77
2022/12/05 11:48:46;;;;;;;15.75;7.53;;;;;;;;;;5081228;28;20055;-77
2022/12/05 11:51:30;;;;;;;14.35;7.53;;;;;;;;;;5087280;28;20051;-76
2022/12/05 11:54:03;;;;;;;19.40;7.90;;;;;;;;;;5089857;28;20407;-76
2022/12/05 11:56:35;;;;;;;15.63;8.18;;;;;;;;;;5105442;28;20144;-76
2022/12/05 11:59:15;;;;;;;17.60;7.82;;;;;;;;;;5106673;28;20271;-76
2022/12/05 12:01:41;;;;;;;16.25;8.30;;;;;;;;;;5084135;28;20510;-76
2022/12/05 12:04:10;;;;;;;17.08;7.78;;;;;;;;;;5090473;28;20050;-76
2022/12/05 12:06:55;;;;;;;13.50;7.63;;;;;;;;;;5088801;28;20032;-76
2022/12/05 12:09:21;;;;;;;14.00;7.32;;;;;;;;;;5082169;28;20046;-76
2022/12/05 12:11:47;;;;;;;14.40;7.32;;;;;;;;;;5101790;28;20463;-77
2022/12/05 12:14:25;;;;;;;10.43;6.57;;;;;;;;;;5086522;28;20130;-77
2022/12/05 12:16:51;;;;;;;15.57;7.03;;;;;;;;;;5082570;28;20126;-77
2022/12/05 12:19:30;;;;;;;15.13;6.97;;;;;;;;;;5106766;28;20122;-76
2022/12/05 12:21:56;;;;;;;14.70;7.05;;;;;;;;;;5090577;28;20100;-77
2022/12/05 12:24:22;;;;;;;18.85;7.38;;;;;;;;;;5086380;28;20040;-77
2022/12/05 12:26:52;;;;;;;15.93;7.60;;;;;;;;;;5087838;28;20035;-76
2022/12/05 12:29:37;;;;;;;15.63;7.22;;;;;;;;;;5084669;28;20051;-77
2022/12/05 12:32:22;;;;;;;13.20;6.30;;;;;;;;;;5089037;28;20116;-77
2022/12/05 12:34:48;;;;;;;14.20;6.97;;;;;;;;;;5088785;28;20052;-76
2022/12/05 12:37:18;;;;;;;13.75;6.55;;;;;;;;;;5106594;28;20048;-77
2022/12/05 12:39:50;;;;;;;12.30;6.90;;;;;;;;;;5107417;28;20047;-76
2022/12/05 12:42:48;;;;;;;12.82;5.93;;;;;;;;;;5104691;28;20040;-78
2022/12/05 12:45:33;;;;;;;12.75;6.82;;;;;;;;;;5045011;28;20060;-76
2022/12/05 12:48:11;;;;;;;12.55;6.40;;;;;;;;;;5097606;28;20036;-76
2022/12/05 12:50:40;;;;;;;17.35;7.53;;;;;;;;;;5103431;28;20056;-77
2022/12/05 12:53:06;;;;;;;9.98;6.40;;;;;;;;;;5082847;28;20043;-77
2022/12/05 12:55:38;;;;;;;12.85;6.55;;;;;;;;;;5084687;28;20050;-76
2022/12/05 12:58:14;;;;;;;13.25;7.10;;;;;;;;;;5102971;28;20096;-77
2022/12/05 13:00:53;;;;;;;17.88;6.22;;;;;;;;;;5059349;28;20116;-76
2022/12/05 13:03:43;;;;;;;14.32;7.13;;;;;;;;;;5079186;28;20429;-76
2022/12/05 13:06:18;;;;;;;14.30;7.10;;;;;;;;;;5101089;28;20130;-76
2022/12/05 13:08:50;;;;;;;15.40;6.95;;;;;;;;;;5076242;28;20040;-76
2022/12/05 13:11:18;;;;;;;12.18;6.40;;;;;;;;;;5096251;28;20054;-76
2022/12/05 13:13:56;;;;;;;15.25;6.63;;;;;;;;;;5078607;28;20048;-76
2022/12/05 13:16:27;;;;;;;16.60;7.38;;;;;;;;;;5095738;28;20055;-77
2022/12/05 13:18:55;;;;;;;13.88;7.20;;;;;;;;;;5095437;28;20036;-76
2022/12/05 13:21:21;;;;;;;20.23;7.47;;;;;;;;;;5083919;28;20047;-76
2022/12/05 13:23:49;;;;;;;12.48;7.00;;;;;;;;;;5093884;28;20131;-76
2022/12/05 13:26:15;;;;;;;15.48;6.75;;;;;;;;;;5093787;28;20044;-76
2022/12/05 13:28:53;;;;;;;13.60;7.05;;;;;;;;;;5074301;28;20371;-76
2022/12/05 13:31:33;;;;;;;15.48;7.13;;;;;;;;;;5099869;28;20051;-76
2022/12/05 13:33:59;;;;;;;12.95;6.68;;;;;;;;;;5074604;28;20520;-76
2022/12/05 13:42:14;;;;;;;12.63;6.82;;;;;;;;;;5078269;28;20070;-76
2022/12/05 13:44:43;;;;;;;15.15;6.93;;;;;;;;;;5073456;28;20040;-76
2022/12/05 13:47:21;;;;;;;12.40;5.97;;;;;;;;;;5078359;28;20056;-76
2022/12/05 13:49:52;;;;;;;11.32;6.30;;;;;;;;;;5084738;28;20135;-76
2022/12/05 13:52:21;;;;;;;13.23;6.65;;;;;;;;;;5078278;28;20100;-76
2022/12/05 13:54:57;;;;;;;12.35;5.95;;;;;;;;;;5081208;28;20511;-76
2022/12/05 13:57:39;;;;;;;13.25;6.38;;;;;;;;;;5077221;28;20044;-76
2022/12/05 14:00:08;;;;;;;13.10;7.20;;;;;;;;;;5078029;28;20549;-76
2022/12/05 14:02:44;;;;;;;13.55;6.40;;;;;;;;;;5076718;28;20079;-76
2022/12/05 14:05:13;;;;;;;16.73;6.72;;;;;;;;;;5086226;28;20526;-76
2022/12/05 14:07:43;;;;;;;11.43;6.35;;;;;;;;;;5078245;28;20056;-76
2022/12/05 14:10:12;;;;;;;12.13;5.93;;;;;;;;;;5078078;28;20048;-76
2022/12/05 14:12:47;;;;;;;11.60;6.10;;;;;;;;;;5076949;28;20040;-76
2022/12/05 14:15:25;;;;;;;11.45;6.22;;;;;;;;;;5076568;28;20055;-76
2022/12/05 14:17:56;;;;;;;14.00;6.38;;;;;;;;;;5070586;28;20043;-77
2022/12/05 14:20:27;;;;;;;10.68;6.35;;;;;;;;;;5080128;28;20051;-77
2022/12/05 14:22:59;;;;;;;12.20;6.38;;;;;;;;;;5073630;28;20455;-77
2022/12/05 14:25:32;;;;;;;11.27;6.07;;;;;;;;;;5083411;28;20617;-77
2022/12/05 14:27:58;;;;;;;;;;;;;;;;;;5086943;28;20388;-77
2022/12/05 14:30:24;;;;;;;9.70;6.32;;;;;;;;;;5090219;28;19920;-76
2022/12/05 14:32:52;;;;;;;10.18;5.65;;;;;;;;;;5078297;28;20093;-77
2022/12/05 14:35:39;;;;;;;10.25;5.93;;;;;;;;;;5088939;28;20056;-75
2022/12/05 14:38:05;;;;;;;10.90;5.72;;;;;;;;;;5088680;28;20203;-77
2022/12/05 14:40:33;;;;;;;11.05;6.15;;;;;;;;;;5076743;28;20047;-74
2022/12/05 14:42:59;;;;;;;11.65;6.35;;;;;;;;;;5089958;28;20039;-76
2022/12/05 14:45:25;;;;;;;13.93;6.53;;;;;;;;;;5079771;28;20051;-77
2022/12/05 14:47:53;;;;;;;11.98;6.65;;;;;;;;;;5072691;28;20059;-77
2022/12/05 14:50:22;;;;;;;12.93;6.55;;;;;;;;;;5080200;28;20051;-77
2022/12/05 14:53:07;;;;;;;12.50;6.43;;;;;;;;;;5086727;28;20082;-77